Time;durP1;ratioP1;P1;durP2;ratioP2;P2;SDS_P1;SDS_P2;PMS_P1;PMS_P2;Temp;Humidity;BMP_temperature;BMP_pressure;BME280_temperature;BME280_humidity;BME280_pressure;Samples;Min_cycle;Max_cycle;Signal;HPM_P1;HPM_P2
2022/09/21 00:02:12;;;;;;;;;;;29.80;91.10;;;;;;5114941;28;19912;-57
2022/09/21 00:04:38;;;;;;;;;;;29.80;91.20;;;;;;5111812;28;19908;-58
2022/09/21 00:07:04;;;;;;;;;;;29.80;91.40;;;;;;5110579;28;19979;-60
2022/09/21 00:09:30;;;;;;;;;;;29.80;91.50;;;;;;5104528;28;19912;-59
2022/09/21 00:11:57;;;;;;;;;;;29.80;91.20;;;;;;5123492;28;19976;-55
2022/09/21 00:14:23;;;;;;;;;;;29.70;90.90;;;;;;5123597;28;20214;-58
2022/09/21 00:16:49;;;;;;;;;;;29.80;91.00;;;;;;5123652;28;19943;-56
2022/09/21 00:19:15;;;;;;;;;;;29.80;91.10;;;;;;5122977;28;19950;-56
2022/09/21 00:21:41;;;;;;;;;;;29.80;91.10;;;;;;5123371;28;19984;-54
2022/09/21 00:24:08;;;;;;;;;;;29.80;91.10;;;;;;5125623;28;19916;-60
2022/09/21 00:26:34;;;;;;;;;;;29.80;91.00;;;;;;5127719;28;19945;-54
2022/09/21 00:29:01;;;;;;;;;;;29.80;91.20;;;;;;5127547;28;19908;-55
2022/09/21 00:31:28;;;;;;;;;;;29.80;91.00;;;;;;5127896;28;19915;-56
2022/09/21 00:33:54;;;;;;;;;;;29.80;90.90;;;;;;5127948;28;19934;-54
2022/09/21 00:36:22;;;;;;;;;;;29.80;91.00;;;;;;5127379;28;19954;-58
2022/09/21 00:38:55;;;;;;;;;;;29.80;91.10;;;;;;5127891;28;19912;-56
2022/09/21 00:41:22;;;;;;;;;;;29.80;91.10;;;;;;5127688;28;19904;-56
2022/09/21 00:44:08;;;;;;;;;;;29.80;91.10;;;;;;5127297;28;19912;-57
2022/09/21 00:46:35;;;;;;;;;;;29.80;91.00;;;;;;5127452;28;19904;-59
2022/09/21 00:49:02;;;;;;;;;;;29.80;91.00;;;;;;5127217;28;19919;-54
2022/09/21 00:51:29;;;;;;;;;;;29.80;90.80;;;;;;5127332;28;19980;-56
2022/09/21 00:53:59;;;;;;;;;;;29.80;90.60;;;;;;5109064;28;19912;-59
2022/09/21 00:56:25;;;;;;;;;;;29.80;90.60;;;;;;5127419;28;19904;-56
2022/09/21 00:58:53;;;;;;;;;;;29.80;90.60;;;;;;5127753;28;20091;-56
2022/09/21 01:01:19;;;;;;;;;;;29.80;90.60;;;;;;5127153;28;19908;-58
2022/09/21 01:03:46;;;;;;;;;;;29.70;90.30;;;;;;5127453;28;19961;-56
2022/09/21 01:06:13;;;;;;;;;;;29.80;90.10;;;;;;5126973;28;19944;-57
2022/09/21 01:08:40;;;;;;;;;;;29.70;89.50;;;;;;5127241;28;19968;-61
2022/09/21 01:11:07;;;;;;;;;;;29.70;89.20;;;;;;5127010;28;19945;-58
2022/09/21 01:13:46;;;;;;;;;;;29.70;88.80;;;;;;5127092;28;20145;-57
2022/09/21 01:16:12;;;;;;;;;;;29.70;88.80;;;;;;5126864;28;20107;-57
2022/09/21 01:18:54;;;;;;;;;;;29.70;89.10;;;;;;5126844;28;20144;-56
2022/09/21 01:21:22;;;;;;;;;;;29.70;89.20;;;;;;5127066;28;19915;-56
2022/09/21 01:24:27;;;;;;;;;;;29.70;89.50;;;;;;5126613;28;19963;-57
2022/09/21 01:26:54;;;;;;;;;;;29.70;89.40;;;;;;5024171;28;19909;-57
2022/09/21 01:29:23;;;;;;;;;;;29.60;89.60;;;;;;5024160;28;20206;-56
2022/09/21 01:31:52;;;;;;;;;;;29.60;89.70;;;;;;5058152;28;19938;-54
2022/09/21 01:34:27;;;;;;;;;;;29.60;90.00;;;;;;5126992;28;19949;-57
2022/09/21 01:36:55;;;;;;;;;;;29.60;90.00;;;;;;5124732;28;19915;-53
2022/09/21 01:39:22;;;;;;;;;;;29.60;90.10;;;;;;5119308;28;19919;-58
2022/09/21 01:41:50;;;;;;;;;;;29.60;90.20;;;;;;5106637;28;19951;-55
2022/09/21 01:44:22;;;;;;;;;;;29.50;90.20;;;;;;5102505;28;20192;-57
2022/09/21 01:46:49;;;;;;;;;;;29.40;89.80;;;;;;5104738;28;20124;-58
2022/09/21 01:49:17;;;;;;;;;;;29.40;89.50;;;;;;5112170;28;19919;-55
2022/09/21 01:51:50;;;;;;;;;;;29.30;89.50;;;;;;5119096;28;19939;-49
2022/09/21 01:54:40;;;;;;;;;;;29.30;89.20;;;;;;5105381;28;19912;-50
2022/09/21 01:57:13;;;;;;;;;;;29.30;88.70;;;;;;5095005;28;19912;-52
2022/09/21 01:59:49;;;;;;;;;;;29.30;88.30;;;;;;5105772;28;19915;-51
2022/09/21 02:02:17;;;;;;;;;;;29.30;88.00;;;;;;5105650;28;19915;-54
2022/09/21 02:04:44;;;;;;;;;;;29.30;88.00;;;;;;5111995;28;19912;-49
2022/09/21 02:07:10;;;;;;;;;;;29.30;88.00;;;;;;5116201;28;19931;-54
2022/09/21 02:09:37;;;;;;;;;;;29.30;87.80;;;;;;5105844;28;19959;-57
2022/09/21 02:12:06;;;;;;;;;;;29.20;87.70;;;;;;5105511;28;19975;-53
2022/09/21 02:14:34;;;;;;;;;;;29.20;87.50;;;;;;5118298;28;19912;-48
2022/09/21 02:17:01;;;;;;;;;;;29.20;87.70;;;;;;5125759;28;20218;-52
2022/09/21 02:19:50;;;;;;;;;;;29.20;87.50;;;;;;5123685;28;19912;-51
2022/09/21 02:22:28;;;;;;;;;;;29.20;87.70;;;;;;5121202;28;19908;-51
2022/09/21 02:25:04;;;;;;;;;;;29.10;87.60;;;;;;5112279;28;19912;-54
2022/09/21 02:27:52;;;;;;;;;;;29.10;87.80;;;;;;5125672;28;20196;-55
2022/09/21 02:30:26;;;;;;;;;;;29.10;87.50;;;;;;5125848;28;19939;-54
2022/09/21 02:33:08;;;;;;;;;;;29.10;87.60;;;;;;5125394;28;19907;-59
2022/09/21 02:35:35;;;;;;;;;;;29.00;87.60;;;;;;5124818;28;19920;-53
2022/09/21 02:38:03;;;;;;;;;;;29.00;87.70;;;;;;5111689;28;19912;-52
2022/09/21 02:40:34;;;;;;;;;;;29.00;87.70;;;;;;5125342;28;19919;-51
2022/09/21 02:43:04;;;;;;;;;;;29.00;87.60;;;;;;5125336;28;19907;-51
2022/09/21 02:45:34;;;;;;;;;;;29.00;87.50;;;;;;5125701;28;19908;-52
2022/09/21 02:48:04;;;;;;;;;;;29.00;87.50;;;;;;5125062;28;19982;-52
2022/09/21 02:50:50;;;;;;;;;;;29.00;87.50;;;;;;5119206;28;19949;-54
2022/09/21 02:53:19;;;;;;;;;;;28.90;87.50;;;;;;5123635;28;19944;-51
2022/09/21 02:55:49;;;;;;;;;;;29.00;87.30;;;;;;5121940;28;19915;-56
2022/09/21 02:58:15;;;;;;;;;;;28.90;87.20;;;;;;5113422;28;19912;-51
2022/09/21 03:00:42;;;;;;;;;;;28.90;87.30;;;;;;5109114;28;20212;-53
2022/09/21 03:03:18;;;;;;;;;;;28.90;87.40;;;;;;5104570;28;19908;-53
2022/09/21 03:05:47;;;;;;;;;;;28.90;87.50;;;;;;5115811;28;19912;-53
2022/09/21 03:08:14;;;;;;;;;;;28.90;87.70;;;;;;5106361;28;19907;-53
2022/09/21 03:10:40;;;;;;;;;;;28.90;87.70;;;;;;5118606;28;19908;-56
2022/09/21 03:13:10;;;;;;;;;;;28.90;87.80;;;;;;5113181;28;19946;-53
2022/09/21 03:15:36;;;;;;;;;;;28.90;87.60;;;;;;5104536;28;19958;-55
2022/09/21 03:18:03;;;;;;;;;;;28.90;87.40;;;;;;5104429;28;19966;-53
2022/09/21 03:20:33;;;;;;;;;;;28.90;87.40;;;;;;5104817;28;20219;-55
2022/09/21 03:22:59;;;;;;;;;;;28.90;87.40;;;;;;5118975;28;19907;-61
2022/09/21 03:25:26;;;;;;;;;;;29.00;87.50;;;;;;5125287;28;19919;-54
2022/09/21 03:27:53;;;;;;;;;;;28.90;87.30;;;;;;5124603;28;19907;-53
2022/09/21 03:30:23;;;;;;;;;;;28.90;87.40;;;;;;5125246;28;19912;-56
2022/09/21 03:32:50;;;;;;;;;;;28.90;87.40;;;;;;5124609;28;19915;-54
2022/09/21 03:35:16;;;;;;;;;;;28.90;87.40;;;;;;5124715;28;19919;-55
2022/09/21 03:37:43;;;;;;;;;;;28.90;87.30;;;;;;5124696;28;20289;-57
2022/09/21 03:40:11;;;;;;;;;;;29.00;87.30;;;;;;5125253;28;20093;-55
2022/09/21 03:42:38;;;;;;;;;;;28.90;87.10;;;;;;5122166;28;19946;-54
2022/09/21 03:45:04;;;;;;;;;;;28.90;87.30;;;;;;5113615;28;19919;-57
2022/09/21 03:47:30;;;;;;;;;;;28.90;87.70;;;;;;5104178;28;19943;-59
2022/09/21 03:49:56;;;;;;;;;;;28.90;87.10;;;;;;5104591;28;19913;-57
2022/09/21 03:52:22;;;;;;;;;;;28.90;87.20;;;;;;5104340;28;19939;-54
2022/09/21 03:54:49;;;;;;;;;;;28.90;87.10;;;;;;5104554;28;19920;-58
2022/09/21 03:57:15;;;;;;;;;;;28.90;87.10;;;;;;5103894;28;19954;-56
2022/09/21 03:59:41;;;;;;;;;;;28.90;87.20;;;;;;5106544;28;19916;-55
2022/09/21 04:02:07;;;;;;;;;;;28.90;87.20;;;;;;5107999;28;19915;-54
2022/09/21 04:04:33;;;;;;;;;;;28.90;87.20;;;;;;5108429;28;19916;-57
2022/09/21 04:06:59;;;;;;;;;;;28.90;87.10;;;;;;5107887;28;19915;-56
2022/09/21 04:09:25;;;;;;;;;;;28.90;87.10;;;;;;5108145;28;19918;-59
2022/09/21 04:11:52;;;;;;;;;;;28.90;87.30;;;;;;5108056;28;20187;-56
2022/09/21 04:14:19;;;;;;;;;;;28.90;87.20;;;;;;5107853;28;20092;-57
2022/09/21 04:16:46;;;;;;;;;;;28.90;87.10;;;;;;5107693;28;19908;-58
2022/09/21 04:19:12;;;;;;;;;;;28.90;87.20;;;;;;5107880;28;19913;-55
2022/09/21 04:21:38;;;;;;;;;;;28.90;87.20;;;;;;5107620;28;20078;-56
2022/09/21 04:24:05;;;;;;;;;;;28.90;87.40;;;;;;5107765;28;19912;-55
2022/09/21 04:26:32;;;;;;;;;;;28.80;87.30;;;;;;5107575;28;20068;-56
2022/09/21 04:28:59;;;;;;;;;;;28.80;87.20;;;;;;5107592;28;19915;-53
2022/09/21 04:31:26;;;;;;;;;;;28.80;87.30;;;;;;5107492;28;19908;-58
2022/09/21 04:33:52;;;;;;;;;;;28.80;87.20;;;;;;5107697;28;19912;-57
2022/09/21 04:36:20;;;;;;;;;;;28.80;87.30;;;;;;5114643;28;20000;-57
2022/09/21 04:38:46;;;;;;;;;;;28.80;87.30;;;;;;5111015;28;19912;-57
2022/09/21 04:41:13;;;;;;;;;;;28.80;87.40;;;;;;5107353;28;20243;-54
2022/09/21 04:43:43;;;;;;;;;;;28.80;87.30;;;;;;5107069;28;20108;-56
2022/09/21 04:46:11;;;;;;;;;;;28.80;87.30;;;;;;5107057;28;19911;-58
2022/09/21 04:48:38;;;;;;;;;;;28.80;87.40;;;;;;5107094;28;19919;-54
2022/09/21 04:51:06;;;;;;;;;;;28.80;87.50;;;;;;5106993;28;19975;-54
2022/09/21 04:53:33;;;;;;;;;;;28.80;87.70;;;;;;5107067;28;19904;-57
2022/09/21 04:55:59;;;;;;;;;;;28.80;87.60;;;;;;5107049;28;19946;-57
2022/09/21 04:58:26;;;;;;;;;;;28.80;87.60;;;;;;5106760;28;20025;-58
2022/09/21 05:00:54;;;;;;;;;;;28.70;87.60;;;;;;5106816;28;19908;-54
2022/09/21 05:03:21;;;;;;;;;;;28.70;87.60;;;;;;5106813;28;19908;-54
2022/09/21 05:05:51;;;;;;;;;;;28.70;87.80;;;;;;5118474;28;20214;-54
2022/09/21 05:10:01;;;;;;;;;;;28.70;87.90;;;;;;5106610;28;20133;-56
2022/09/21 05:11:08;;;;;;;;;;;28.70;87.90;;;;;;5117793;28;19912;-58
2022/09/21 05:13:34;;;;;;;;;;;28.70;87.90;;;;;;5117788;28;20180;-55
2022/09/21 05:16:01;;;;;;;;;;;28.70;88.30;;;;;;5106603;28;19904;-55
2022/09/21 05:18:27;;;;;;;;;;;28.70;88.40;;;;;;5106502;28;19916;-57
2022/09/21 05:20:54;;;;;;;;;;;28.70;88.30;;;;;;5106423;28;19942;-57
2022/09/21 05:23:21;;;;;;;;;;;28.60;88.40;;;;;;5106705;28;19904;-55
2022/09/21 05:25:48;;;;;;;;;;;28.60;88.70;;;;;;5120707;28;19915;-59
2022/09/21 05:28:15;;;;;;;;;;;28.60;88.80;;;;;;5126682;28;20187;-53
2022/09/21 05:30:43;;;;;;;;;;;28.60;89.00;;;;;;5126981;28;19950;-55
2022/09/21 05:33:11;;;;;;;;;;;28.60;89.30;;;;;;5126567;28;20063;-54
2022/09/21 05:35:42;;;;;;;;;;;28.60;89.40;;;;;;5121586;28;19920;-56
2022/09/21 05:38:17;;;;;;;;;;;28.60;89.40;;;;;;5114539;28;19979;-56
2022/09/21 05:40:43;;;;;;;;;;;28.60;89.40;;;;;;5126696;28;19987;-56
2022/09/21 05:43:10;;;;;;;;;;;28.60;89.70;;;;;;5126597;28;20104;-53
2022/09/21 05:45:41;;;;;;;;;;;28.60;89.80;;;;;;5126825;28;20178;-53
2022/09/21 05:48:15;;;;;;;;;;;28.50;90.10;;;;;;5126454;28;19914;-55
2022/09/21 05:50:44;;;;;;;;;;;28.50;90.00;;;;;;5126278;28;20218;-53
2022/09/21 05:53:19;;;;;;;;;;;28.50;90.00;;;;;;5126152;28;19915;-54
2022/09/21 05:55:45;;;;;;;;;;;28.50;89.90;;;;;;5126471;28;19919;-54
2022/09/21 05:58:20;;;;;;;;;;;28.50;89.90;;;;;;5124522;28;19919;-55
2022/09/21 06:00:56;;;;;;;;;;;28.50;89.80;;;;;;5119248;28;19913;-54
2022/09/21 06:03:29;;;;;;;;;;;28.50;89.80;;;;;;5112734;28;19915;-58
2022/09/21 06:05:55;;;;;;;;;;;28.50;89.80;;;;;;5125905;28;19972;-54
2022/09/21 06:08:22;;;;;;;;;;;28.40;90.10;;;;;;5125958;28;19908;-54
2022/09/21 06:10:48;;;;;;;;;;;28.40;89.80;;;;;;5116220;28;19914;-54
2022/09/21 06:13:14;;;;;;;;;;;28.40;89.90;;;;;;5105363;28;19971;-54
2022/09/21 06:15:41;;;;;;;;;;;28.40;89.90;;;;;;5105549;28;19915;-54
2022/09/21 06:18:07;;;;;;;;;;;28.40;90.00;;;;;;5105345;28;19950;-55
2022/09/21 06:20:34;;;;;;;;;;;28.40;89.90;;;;;;5105851;28;19922;-55
2022/09/21 06:23:01;;;;;;;;;;;28.40;90.10;;;;;;5105014;28;19908;-55
2022/09/21 06:25:27;;;;;;;;;;;28.40;90.00;;;;;;5091961;28;20156;-61
2022/09/21 06:27:53;;;;;;;;;;;28.40;90.10;;;;;;5113879;28;19932;-53
2022/09/21 06:30:19;;;;;;;;;;;28.40;90.00;;;;;;5126067;28;19918;-53
2022/09/21 06:32:45;;;;;;;;;;;28.40;89.80;;;;;;5106465;28;19904;-53
2022/09/21 06:35:11;;;;;;;;;;;28.40;89.90;;;;;;5105135;28;19935;-53
2022/09/21 06:37:39;;;;;;;;;;;28.30;90.00;;;;;;5105117;28;19908;-53
2022/09/21 06:40:05;;;;;;;;;;;28.30;90.10;;;;;;5111733;28;19916;-54
2022/09/21 06:42:32;;;;;;;;;;;28.30;90.00;;;;;;5125217;28;19942;-53
2022/09/21 06:44:58;;;;;;;;;;;28.30;90.00;;;;;;5125711;28;19908;-53
2022/09/21 06:47:24;;;;;;;;;;;28.30;90.10;;;;;;5125354;28;19904;-54
2022/09/21 06:49:52;;;;;;;;;;;28.30;90.10;;;;;;5125619;28;19912;-49
2022/09/21 06:52:18;;;;;;;;;;;28.30;90.10;;;;;;5125175;28;19915;-51
2022/09/21 06:54:44;;;;;;;;;;;28.30;90.10;;;;;;5125533;28;19908;-54
2022/09/21 06:57:10;;;;;;;;;;;28.30;90.00;;;;;;5114408;28;19918;-52
2022/09/21 06:59:37;;;;;;;;;;;28.30;90.10;;;;;;5109883;28;19958;-52
2022/09/21 07:02:03;;;;;;;;;;;28.30;90.30;;;;;;5112076;28;19926;-56
2022/09/21 07:04:30;;;;;;;;;;;28.30;90.30;;;;;;5121782;28;19991;-54
2022/09/21 07:06:56;;;;;;;;;;;28.30;90.40;;;;;;5104468;28;19971;-58
2022/09/21 07:09:22;;;;;;;;;;;28.30;90.40;;;;;;5105032;28;19916;-54
2022/09/21 07:11:48;;;;;;;;;;;28.30;90.30;;;;;;5104560;28;20192;-54
2022/09/21 07:14:14;;;;;;;;;;;28.20;90.40;;;;;;5104383;28;19912;-55
2022/09/21 07:16:41;;;;;;;;;;;28.20;90.40;;;;;;5104509;28;19986;-57
2022/09/21 07:19:08;;;;;;;;;;;28.20;90.50;;;;;;5104636;28;20092;-58
2022/09/21 07:21:34;;;;;;;;;;;28.20;90.40;;;;;;5104507;28;20189;-53
2022/09/21 07:24:00;;;;;;;;;;;28.20;90.50;;;;;;5112900;28;19912;-57
2022/09/21 07:26:27;;;;;;;;;;;28.20;90.50;;;;;;5120653;28;19912;-53
2022/09/21 07:28:54;;;;;;;;;;;28.20;90.60;;;;;;5124691;28;20206;-53
2022/09/21 07:31:20;;;;;;;;;;;28.10;90.60;;;;;;5105434;28;19904;-56
2022/09/21 07:33:46;;;;;;;;;;;28.10;90.60;;;;;;5105529;28;19908;-55
2022/09/21 07:36:13;;;;;;;;;;;28.10;90.70;;;;;;5120823;28;20219;-56
2022/09/21 07:38:40;;;;;;;;;;;28.10;90.60;;;;;;5128819;28;19980;-56
2022/09/21 07:41:07;;;;;;;;;;;28.10;90.60;;;;;;5120775;28;19907;-54
2022/09/21 07:43:33;;;;;;;;;;;28.10;90.60;;;;;;5113162;28;20249;-60
2022/09/21 07:46:00;;;;;;;;;;;28.10;90.60;;;;;;5112231;28;20212;-58
2022/09/21 07:48:27;;;;;;;;;;;28.10;90.70;;;;;;5124159;28;20211;-54
2022/09/21 07:50:56;;;;;;;;;;;28.00;90.70;;;;;;5113457;28;20244;-53
2022/09/21 07:53:22;;;;;;;;;;;28.00;90.70;;;;;;5110845;28;19915;-54
2022/09/21 07:55:48;;;;;;;;;;;28.00;90.70;;;;;;5128618;28;19907;-57
2022/09/21 08:01:04;;;;;;;;;;;28.00;90.80;;;;;;5123214;28;19915;-54
2022/09/21 08:03:31;;;;;;;;;;;28.00;90.90;;;;;;5123739;28;19910;-52
2022/09/21 08:05:58;;;;;;;;;;;27.90;91.00;;;;;;5128253;28;20151;-54
2022/09/21 08:08:24;;;;;;;;;;;27.90;91.00;;;;;;5128372;28;19978;-54
2022/09/21 08:10:52;;;;;;;;;;;27.90;91.00;;;;;;5112318;28;20018;-58
2022/09/21 08:13:18;;;;;;;;;;;27.90;91.00;;;;;;5107778;28;20208;-54
2022/09/21 08:15:45;;;;;;;;;;;27.90;91.10;;;;;;5107767;28;19908;-57
2022/09/21 08:18:12;;;;;;;;;;;27.90;91.10;;;;;;5107653;28;19912;-55
2022/09/21 08:20:38;;;;;;;;;;;27.90;91.10;;;;;;5107554;28;19912;-55
2022/09/21 08:23:04;;;;;;;;;;;27.90;91.00;;;;;;5107655;28;19908;-57
2022/09/21 08:25:31;;;;;;;;;;;27.90;90.90;;;;;;5108114;28;20131;-57
2022/09/21 08:27:59;;;;;;;;;;;27.80;90.80;;;;;;5107478;28;19908;-53
2022/09/21 08:30:27;;;;;;;;;;;27.80;90.90;;;;;;5110105;28;19987;-56
2022/09/21 08:32:54;;;;;;;;;;;27.90;90.80;;;;;;5125851;28;19911;-55
2022/09/21 08:35:20;;;;;;;;;;;27.80;90.70;;;;;;5107478;28;20021;-54
2022/09/21 08:37:46;;;;;;;;;;;27.80;90.80;;;;;;5107451;28;19983;-53
2022/09/21 08:40:15;;;;;;;;;;;27.80;90.70;;;;;;5121924;28;19908;-57
2022/09/21 08:42:47;;;;;;;;;;;27.80;90.70;;;;;;5109401;28;19912;-53
2022/09/21 08:45:16;;;;;;;;;;;27.80;90.80;;;;;;5127732;28;20214;-55
2022/09/21 08:47:44;;;;;;;;;;;27.80;90.80;;;;;;5127741;28;19915;-54
2022/09/21 08:50:23;;;;;;;;;;;27.80;90.90;;;;;;5119793;28;19919;-54
2022/09/21 08:52:51;;;;;;;;;;;27.80;90.90;;;;;;5119724;28;20172;-55
2022/09/21 08:55:19;;;;;;;;;;;27.80;91.00;;;;;;5126286;28;19918;-55
2022/09/21 08:57:45;;;;;;;;;;;27.80;91.00;;;;;;5127340;28;19912;-54
2022/09/21 09:00:16;;;;;;;;;;;27.80;91.10;;;;;;5115130;28;19912;-57
2022/09/21 09:02:57;;;;;;;;;;;27.70;91.10;;;;;;5106861;28;19907;-54
2022/09/21 09:05:41;;;;;;;;;;;27.70;91.10;;;;;;5107287;28;19919;-58
2022/09/21 09:08:15;;;;;;;;;;;27.70;91.10;;;;;;5106785;28;20215;-54
2022/09/21 09:10:55;;;;;;;;;;;27.70;91.20;;;;;;5106706;28;19934;-53
2022/09/21 09:13:32;;;;;;;;;;;27.60;91.20;;;;;;5106742;28;20219;-63
2022/09/21 09:16:11;;;;;;;;;;;27.70;91.40;;;;;;5106715;28;19939;-55
2022/09/21 09:19:00;;;;;;;;;;;27.70;91.30;;;;;;5111209;28;19916;-54
2022/09/21 09:21:37;;;;;;;;;;;27.60;91.20;;;;;;5088793;28;19908;-57
2022/09/21 09:24:06;;;;;;;;;;;27.60;91.10;;;;;;5106741;28;19912;-53
2022/09/21 09:26:43;;;;;;;;;;;27.60;91.20;;;;;;5088629;28;19908;-53
2022/09/21 09:29:09;;;;;;;;;;;27.60;91.30;;;;;;5126972;28;19920;-54
2022/09/21 09:31:36;;;;;;;;;;;27.60;91.30;;;;;;5126913;28;20222;-55
2022/09/21 09:34:02;;;;;;;;;;;27.60;91.30;;;;;;5126898;28;19911;-56
2022/09/21 09:36:32;;;;;;;;;;;27.60;91.40;;;;;;5106042;28;19923;-54
2022/09/21 09:39:01;;;;;;;;;;;27.60;91.40;;;;;;5110054;28;19912;-55
2022/09/21 09:41:30;;;;;;;;;;;27.60;91.50;;;;;;5117119;28;20120;-55
2022/09/21 09:44:11;;;;;;;;;;;27.50;91.50;;;;;;5105979;28;19912;-55
2022/09/21 09:46:41;;;;;;;;;;;27.50;91.50;;;;;;5106135;28;19908;-55
2022/09/21 09:49:34;;;;;;;;;;;27.50;91.60;;;;;;5106080;28;20011;-57
2022/09/21 09:52:00;;;;;;;;;;;27.50;91.60;;;;;;5078328;28;19915;-56
2022/09/21 09:54:28;;;;;;;;;;;27.50;91.60;;;;;;5126620;28;20244;-57
2022/09/21 09:56:54;;;;;;;;;;;27.50;91.50;;;;;;5125540;28;19986;-54
2022/09/21 09:59:29;;;;;;;;;;;27.50;91.50;;;;;;5126389;28;19948;-52
2022/09/21 10:02:00;;;;;;;;;;;27.50;91.40;;;;;;5126332;28;19911;-59
2022/09/21 10:04:26;;;;;;;;;;;27.40;91.50;;;;;;5126463;28;19919;-56
2022/09/21 10:06:53;;;;;;;;;;;27.40;91.60;;;;;;5126002;28;20207;-53
2022/09/21 10:09:27;;;;;;;;;;;27.40;91.60;;;;;;5126323;28;19934;-54
2022/09/21 10:11:59;;;;;;;;;;;27.40;91.50;;;;;;5126049;28;19908;-55
2022/09/21 10:14:26;;;;;;;;;;;27.40;91.60;;;;;;5126175;28;19912;-54
2022/09/21 10:16:54;;;;;;;;;;;27.40;91.60;;;;;;5125158;28;19908;-58
2022/09/21 10:19:25;;;;;;;;;;;27.30;91.70;;;;;;5117911;28;19912;-56
2022/09/21 10:21:55;;;;;;;;;;;27.30;91.70;;;;;;5115883;28;20207;-59
2022/09/21 10:24:22;;;;;;;;;;;27.30;91.70;;;;;;5125949;28;20180;-57
2022/09/21 10:26:53;;;;;;;;;;;27.30;91.70;;;;;;5107786;28;19904;-57
2022/09/21 10:29:20;;;;;;;;;;;27.30;91.60;;;;;;5105305;28;19912;-58
2022/09/21 10:31:57;;;;;;;;;;;27.30;91.60;;;;;;5118986;28;19975;-56
2022/09/21 10:34:24;;;;;;;;;;;27.30;91.60;;;;;;5125880;28;19947;-53
2022/09/21 10:36:51;;;;;;;;;;;27.30;91.70;;;;;;5125220;28;19982;-53
2022/09/21 10:39:20;;;;;;;;;;;27.30;91.70;;;;;;5125250;28;20220;-54
2022/09/21 10:41:47;;;;;;;;;;;27.30;91.70;;;;;;5125255;28;19975;-56
2022/09/21 10:44:17;;;;;;;;;;;27.30;91.80;;;;;;5125369;28;20104;-53
2022/09/21 10:46:45;;;;;;;;;;;27.20;91.70;;;;;;5125073;28;19957;-60
2022/09/21 10:49:31;;;;;;;;;;;27.30;91.70;;;;;;5125541;28;19950;-54
2022/09/21 10:51:58;;;;;;;;;;;27.30;91.60;;;;;;5122603;28;19912;-52
2022/09/21 10:54:26;;;;;;;;;;;27.30;91.60;;;;;;5125417;28;19912;-54
2022/09/21 10:56:53;;;;;;;;;;;27.30;91.50;;;;;;5109754;28;19934;-54
2022/09/21 10:59:20;;;;;;;;;;;27.30;91.40;;;;;;5104741;28;19918;-51
2022/09/21 11:01:48;;;;;;;;;;;27.30;91.40;;;;;;5104531;28;19915;-55
2022/09/21 11:04:22;;;;;;;;;;;27.30;91.40;;;;;;5111737;28;20113;-60
2022/09/21 11:06:54;;;;;;;;;;;27.30;91.50;;;;;;5117922;28;19910;-55
2022/09/21 11:09:41;;;;;;;;;;;27.30;91.50;;;;;;5103682;28;19919;-54
2022/09/21 11:12:25;;;;;;;;;;;27.30;91.60;;;;;;5104124;28;19954;-54
2022/09/21 11:15:04;;;;;;;;;;;27.30;91.70;;;;;;5104517;28;19908;-55
2022/09/21 11:17:59;;;;;;;;;;;27.30;91.70;;;;;;5104693;28;20047;-53
2022/09/21 11:20:25;;;;;;;;;;;27.30;91.80;;;;;;5086866;28;19912;-53
2022/09/21 11:22:52;;;;;;;;;;;27.30;91.90;;;;;;5106752;28;19987;-54
2022/09/21 11:25:38;;;;;;;;;;;27.30;91.90;;;;;;5125067;28;19908;-58
2022/09/21 11:28:28;;;;;;;;;;;27.40;91.80;;;;;;5083533;28;19914;-54
2022/09/21 11:31:05;;;;;;;;;;;27.40;91.80;;;;;;5124622;28;20013;-55
2022/09/21 11:33:36;;;;;;;;;;;27.40;91.90;;;;;;5124861;28;19914;-57
2022/09/21 11:36:22;;;;;;;;;;;27.40;91.80;;;;;;5123768;28;19923;-55
2022/09/21 11:38:55;;;;;;;;;;;27.50;91.90;;;;;;5124648;28;19915;-58
2022/09/21 11:41:39;;;;;;;;;;;27.50;91.70;;;;;;5124688;28;19967;-57
2022/09/21 11:44:20;;;;;;;;;;;27.50;91.70;;;;;;5124828;28;19954;-56
2022/09/21 11:47:04;;;;;;;;;;;27.50;91.60;;;;;;5123759;28;19927;-58
2022/09/21 11:49:32;;;;;;;;;;;27.50;91.60;;;;;;5123090;28;19918;-62
2022/09/21 11:52:13;;;;;;;;;;;27.50;91.70;;;;;;5122714;28;20163;-56
2022/09/21 11:54:46;;;;;;;;;;;27.50;91.70;;;;;;5122564;28;19912;-58
2022/09/21 11:57:20;;;;;;;;;;;27.50;91.70;;;;;;5122668;28;19943;-57
2022/09/21 11:59:59;;;;;;;;;;;27.50;91.90;;;;;;5122938;28;19912;-57
2022/09/21 12:02:28;;;;;;;;;;;27.50;92.00;;;;;;5122221;28;19904;-57
2022/09/21 12:04:59;;;;;;;;;;;27.60;92.10;;;;;;5122801;28;19912;-55
2022/09/21 12:07:43;;;;;;;;;;;27.60;92.10;;;;;;5124460;28;19903;-55
2022/09/21 12:10:17;;;;;;;;;;;27.60;92.10;;;;;;5122602;28;19927;-61
2022/09/21 12:12:49;;;;;;;;;;;27.60;92.10;;;;;;5124155;28;19935;-58
2022/09/21 12:15:27;;;;;;;;;;;27.70;92.00;;;;;;5124662;28;19912;-60
2022/09/21 12:17:54;;;;;;;;;;;27.70;92.00;;;;;;5124220;28;19912;-58
2022/09/21 12:20:24;;;;;;;;;;;27.80;91.90;;;;;;5125834;28;19912;-55
2022/09/21 12:22:53;;;;;;;;;;;27.80;91.90;;;;;;5127562;28;20190;-61
2022/09/21 12:25:25;;;;;;;;;;;27.80;91.70;;;;;;5128237;28;19915;-58
2022/09/21 12:27:55;;;;;;;;;;;27.90;91.60;;;;;;5127831;28;20155;-58
2022/09/21 12:30:22;;;;;;;;;;;28.00;91.50;;;;;;5128453;28;19983;-57
2022/09/21 12:32:51;;;;;;;;;;;28.00;91.50;;;;;;5127885;28;19904;-58
2022/09/21 12:35:30;;;;;;;;;;;28.10;91.40;;;;;;5127801;28;19920;-58
2022/09/21 12:37:59;;;;;;;;;;;28.10;91.20;;;;;;5127688;28;20226;-58
2022/09/21 12:40:42;;;;;;;;;;;28.20;91.30;;;;;;5127457;28;19908;-55
2022/09/21 12:43:15;;;;;;;;;;;28.20;91.10;;;;;;5127551;28;19951;-59
2022/09/21 12:45:43;;;;;;;;;;;28.30;91.10;;;;;;5127022;28;20138;-58
2022/09/21 12:48:12;;;;;;;;;;;28.30;91.00;;;;;;5127656;28;19915;-55
2022/09/21 12:50:50;;;;;;;;;;;28.40;91.00;;;;;;5127293;28;20088;-57
2022/09/21 12:53:18;;;;;;;;;;;28.40;90.80;;;;;;5127698;28;20063;-55
2022/09/21 12:56:03;;;;;;;;;;;28.40;91.00;;;;;;5127378;28;19916;-55
2022/09/21 12:58:50;;;;;;;;;;;28.50;91.00;;;;;;5127166;28;20142;-56
2022/09/21 13:01:36;;;;;;;;;;;28.50;90.80;;;;;;5075053;28;19908;-57
2022/09/21 13:04:11;;;;;;;;;;;28.50;91.10;;;;;;5127330;28;19964;-56
2022/09/21 13:06:57;;;;;;;;;;;28.50;90.80;;;;;;5127151;28;19949;-55
2022/09/21 13:09:24;;;;;;;;;;;28.60;90.70;;;;;;5123445;28;19957;-58
2022/09/21 13:11:53;;;;;;;;;;;28.60;90.70;;;;;;5116073;28;19908;-56
2022/09/21 13:14:20;;;;;;;;;;;28.60;90.60;;;;;;5115975;28;20297;-56
2022/09/21 13:16:52;;;;;;;;;;;28.60;90.60;;;;;;5106585;28;19908;-59
2022/09/21 13:19:21;;;;;;;;;;;28.70;90.80;;;;;;5126289;28;19908;-56
2022/09/21 13:22:10;;;;;;;;;;;28.70;90.60;;;;;;5123264;28;19947;-62
2022/09/21 13:24:36;;;;;;;;;;;28.70;90.40;;;;;;5120524;28;19979;-59
2022/09/21 13:27:05;;;;;;;;;;;28.70;90.40;;;;;;5126262;28;19912;-58
2022/09/21 13:29:33;;;;;;;;;;;28.70;90.50;;;;;;5126625;28;19908;-60
2022/09/21 13:32:03;;;;;;;;;;;28.70;90.30;;;;;;5125155;28;19908;-60
2022/09/21 13:34:34;;;;;;;;;;;28.80;90.20;;;;;;5126736;28;20176;-61
2022/09/21 13:37:06;;;;;;;;;;;28.80;90.30;;;;;;5102238;28;20103;-60
2022/09/21 13:39:33;;;;;;;;;;;28.80;90.30;;;;;;5103726;28;19947;-60
2022/09/21 13:42:18;;;;;;;;;;;28.80;90.20;;;;;;5104975;28;19916;-61
2022/09/21 13:44:45;;;;;;;;;;;28.80;90.00;;;;;;5101821;28;19919;-61
2022/09/21 13:47:13;;;;;;;;;;;28.80;90.10;;;;;;5104313;28;19908;-60
2022/09/21 13:49:44;;;;;;;;;;;28.80;90.20;;;;;;5104506;28;19911;-58
2022/09/21 13:52:14;;;;;;;;;;;28.90;90.20;;;;;;5104433;28;20153;-62
2022/09/21 13:54:51;;;;;;;;;;;28.90;90.40;;;;;;5104337;28;19912;-58
2022/09/21 13:57:17;;;;;;;;;;;28.90;90.00;;;;;;5103962;28;19939;-61
2022/09/21 13:59:44;;;;;;;;;;;28.90;90.10;;;;;;5102271;28;19912;-62
2022/09/21 14:02:23;;;;;;;;;;;28.90;90.10;;;;;;5105738;28;19974;-61
2022/09/21 14:04:50;;;;;;;;;;;28.90;90.20;;;;;;5105601;28;19919;-60
2022/09/21 14:07:16;;;;;;;;;;;28.90;90.30;;;;;;5105305;28;19908;-59
2022/09/21 14:10:02;;;;;;;;;;;29.00;90.10;;;;;;5105714;28;19950;-60
2022/09/21 14:12:32;;;;;;;;;;;29.00;90.00;;;;;;5105221;28;19964;-59
2022/09/21 14:15:27;;;;;;;;;;;29.00;90.10;;;;;;5105897;28;19912;-60
2022/09/21 14:18:17;;;;;;;;;;;29.00;90.10;;;;;;5103165;28;19912;-61
2022/09/21 14:21:02;;;;;;;;;;;29.00;90.20;;;;;;5103758;28;19916;-59
2022/09/21 14:23:28;;;;;;;;;;;29.10;90.20;;;;;;5103939;28;19908;-59
2022/09/21 14:26:00;;;;;;;;;;;29.10;90.10;;;;;;5103682;28;19923;-61
2022/09/21 14:28:46;;;;;;;;;;;29.10;90.10;;;;;;5103500;28;19908;-60
2022/09/21 14:31:28;;;;;;;;;;;29.10;90.20;;;;;;5103469;28;19978;-60
2022/09/21 14:33:56;;;;;;;;;;;29.10;90.00;;;;;;5105234;28;19912;-59
2022/09/21 14:36:29;;;;;;;;;;;29.10;90.00;;;;;;5120074;28;19982;-60
2022/09/21 14:38:59;;;;;;;;;;;29.10;90.00;;;;;;5125233;28;19916;-61